Schillplate — ZDJJ8 — position and weather

sailwx.info

Track history (hours):
 
Tides and Currents Weather Stations Pressure Air Temp Water Temp Dewpoint Dewpoint Depression Visibility Wind Speed Wind Dir Waves Ship Positions

Schillplate

Last reported at 2015-Jan-30 10:26 UTC. Time now 2015-Feb-01 18:13 UTC.
Position N 36°41' E 013°58'.

Length 86 m; draft 5.5 m.

Type: Cargo ship. MMSI: 236111603.

Date/timePositionNaut miles runAvg speedWind from/ knotsBaromVisibWave heightAir tempDewpointWater temp
2015-Jan-30 10:26N 36°41' E 013°58'5 5.4
2015-Jan-30 09:33N 36°40' E 014°04'6 5.7
2015-Jan-30 08:33N 36°40' E 014°11'6 5.7
2015-Jan-30 07:33N 36°40' E 014°18'5 5.3
2015-Jan-30 06:33N 36°39' E 014°25'5 5.5
2015-Jan-30 05:33N 36°38' E 014°31'  
2015-Jan-24 21:27N 46°36' E 031°47'8 9.4
2015-Jan-24 20:34N 46°41' E 031°56'9 8.7
2015-Jan-24 19:34N 46°50' E 031°56'7 6.9
2015-Jan-24 18:31N 46°56' E 032°01'0 0.0
2015-Jan-24 17:31N 46°56' E 032°01'0 0.0
2015-Jan-24 16:31N 46°56' E 032°01'0 0.0
2015-Jan-24 15:31N 46°56' E 032°01'0 0.0
2015-Jan-24 14:31N 46°56' E 032°01'0 0.0
2015-Jan-24 13:31N 46°56' E 032°01'0 0.0
2015-Jan-24 12:31N 46°56' E 032°01'0 0.0
2015-Jan-24 11:31N 46°56' E 032°01'0 0.0
2015-Jan-24 10:31N 46°56' E 032°01'0 0.0
2015-Jan-24 09:31N 46°56' E 032°01'0 0.0
2015-Jan-24 08:31N 46°56' E 032°01'0 0.0
2015-Jan-24 07:31N 46°56' E 032°01'0 0.0
2015-Jan-24 06:31N 46°56' E 032°01'0 0.0
2015-Jan-24 05:31N 46°56' E 032°01'0 0.0
2015-Jan-24 04:31N 46°56' E 032°01'0 0.0
2015-Jan-24 03:31N 46°56' E 032°01'0 0.0
2015-Jan-24 02:31N 46°56' E 032°01'0 0.0
2015-Jan-24 01:31N 46°56' E 032°01'0 0.0
2015-Jan-24 00:31N 46°56' E 032°01'0 0.0
2015-Jan-23 23:31N 46°56' E 032°01'0 0.0
2015-Jan-23 22:31N 46°56' E 032°01'0 0.0
2015-Jan-23 21:28N 46°56' E 032°01'0 0.0
2015-Jan-23 20:10N 46°56' E 032°01'0 0.0
2015-Jan-23 19:31N 46°56' E 032°01'0 0.0
2015-Jan-23 18:31N 46°56' E 032°01'0 0.0
2015-Jan-23 17:31N 46°56' E 032°01'0 0.0
2015-Jan-23 16:31N 46°56' E 032°01'0 0.0
2015-Jan-23 15:31N 46°56' E 032°01'0 0.0
2015-Jan-23 14:31N 46°56' E 032°01'0 0.0
2015-Jan-23 13:31N 46°56' E 032°01'0 0.0
2015-Jan-23 12:31N 46°56' E 032°01'0 0.0
2015-Jan-23 11:31N 46°56' E 032°01'0 0.1
2015-Jan-23 10:33N 46°56' E 032°01'0 0.4
2015-Jan-23 09:31N 46°56' E 032°01'0 0.0
2015-Jan-23 08:31N 46°56' E 032°01'0 0.0
2015-Jan-23 07:31N 46°56' E 032°01'0 0.0
2015-Jan-23 06:31N 46°56' E 032°01'0 0.0
2015-Jan-23 05:31N 46°56' E 032°01'0 0.0
2015-Jan-23 04:31N 46°56' E 032°01'0 0.0
2015-Jan-23 03:25N 46°56' E 032°01'0 0.0
2015-Jan-23 02:31N 46°56' E 032°01'0 0.0
2015-Jan-23 01:31N 46°56' E 032°01'0 0.0
2015-Jan-23 00:31N 46°56' E 032°01'0 0.0
2015-Jan-22 23:31N 46°56' E 032°01'0 0.0
2015-Jan-22 22:31N 46°56' E 032°01'0 0.0
2015-Jan-22 21:31N 46°56' E 032°01'0 0.0
2015-Jan-22 20:31N 46°56' E 032°01'0 0.0
2015-Jan-22 19:31N 46°56' E 032°01'0 0.0
2015-Jan-22 18:31N 46°56' E 032°01'0 0.0
2015-Jan-22 17:31N 46°56' E 032°01'0 0.0
2015-Jan-22 16:31N 46°56' E 032°01'0 0.0
2015-Jan-22 15:31N 46°56' E 032°01'0 0.0
2015-Jan-22 14:31N 46°56' E 032°01'0 0.0
2015-Jan-22 13:28N 46°56' E 032°01'0 0.1
2015-Jan-22 12:33N 46°56' E 032°01'1 0.7
2015-Jan-22 11:31N 46°57' E 031°60'0 0.0
2015-Jan-22 10:31N 46°57' E 031°60'0 0.0
2015-Jan-22 09:31N 46°57' E 031°60'0 0.0
2015-Jan-22 08:31N 46°57' E 031°60'0 0.0
2015-Jan-22 07:31N 46°57' E 031°60'0 0.0
2015-Jan-22 06:31N 46°57' E 031°60'0 0.1
2015-Jan-22 05:31N 46°57' E 032°00'0 0.0
2015-Jan-22 04:33N 46°57' E 032°00'8 7.6
2015-Jan-22 03:34N 46°50' E 031°55'9 9.4
2015-Jan-22 02:33N 46°40' E 031°56'10 9.8
2015-Jan-22 01:33N 46°36' E 031°43'  
Track history (hours):
 
Tides and Currents Weather Stations Pressure Air Temp Water Temp Dewpoint Dewpoint Depression Visibility Wind Speed Wind Dir Waves Ship Positions

Schillplate

Last reported at 2015-Jan-30 10:26 UTC. Time now 2015-Feb-01 18:13 UTC.
Position N 36°41' E 013°58'.

Length 86 m; draft 5.5 m.

Type: Cargo ship. MMSI: 236111603.

Date/timePositionNaut miles runAvg speedWind from/ knotsBaromVisibWave heightAir tempDewpointWater temp
2015-Jan-30 10:26N 36°41' E 013°58'5 5.4
2015-Jan-30 09:33N 36°40' E 014°04'6 5.7
2015-Jan-30 08:33N 36°40' E 014°11'6 5.7
2015-Jan-30 07:33N 36°40' E 014°18'5 5.3
2015-Jan-30 06:33N 36°39' E 014°25'5 5.5
2015-Jan-30 05:33N 36°38' E 014°31'  
2015-Jan-24 21:27N 46°36' E 031°47'8 9.4
2015-Jan-24 20:34N 46°41' E 031°56'9 8.7
2015-Jan-24 19:34N 46°50' E 031°56'7 6.9
2015-Jan-24 18:31N 46°56' E 032°01'0 0.0
2015-Jan-24 17:31N 46°56' E 032°01'0 0.0
2015-Jan-24 16:31N 46°56' E 032°01'0 0.0
2015-Jan-24 15:31N 46°56' E 032°01'0 0.0
2015-Jan-24 14:31N 46°56' E 032°01'0 0.0
2015-Jan-24 13:31N 46°56' E 032°01'0 0.0
2015-Jan-24 12:31N 46°56' E 032°01'0 0.0
2015-Jan-24 11:31N 46°56' E 032°01'0 0.0
2015-Jan-24 10:31N 46°56' E 032°01'0 0.0
2015-Jan-24 09:31N 46°56' E 032°01'0 0.0
2015-Jan-24 08:31N 46°56' E 032°01'0 0.0
2015-Jan-24 07:31N 46°56' E 032°01'0 0.0
2015-Jan-24 06:31N 46°56' E 032°01'0 0.0
2015-Jan-24 05:31N 46°56' E 032°01'0 0.0
2015-Jan-24 04:31N 46°56' E 032°01'0 0.0
2015-Jan-24 03:31N 46°56' E 032°01'0 0.0
2015-Jan-24 02:31N 46°56' E 032°01'0 0.0
2015-Jan-24 01:31N 46°56' E 032°01'0 0.0
2015-Jan-24 00:31N 46°56' E 032°01'0 0.0
2015-Jan-23 23:31N 46°56' E 032°01'0 0.0
2015-Jan-23 22:31N 46°56' E 032°01'0 0.0
2015-Jan-23 21:28N 46°56' E 032°01'0 0.0
2015-Jan-23 20:10N 46°56' E 032°01'0 0.0
2015-Jan-23 19:31N 46°56' E 032°01'0 0.0
2015-Jan-23 18:31N 46°56' E 032°01'0 0.0
2015-Jan-23 17:31N 46°56' E 032°01'0 0.0
2015-Jan-23 16:31N 46°56' E 032°01'0 0.0
2015-Jan-23 15:31N 46°56' E 032°01'0 0.0
2015-Jan-23 14:31N 46°56' E 032°01'0 0.0
2015-Jan-23 13:31N 46°56' E 032°01'0 0.0
2015-Jan-23 12:31N 46°56' E 032°01'0 0.0
2015-Jan-23 11:31N 46°56' E 032°01'0 0.1
2015-Jan-23 10:33N 46°56' E 032°01'0 0.4
2015-Jan-23 09:31N 46°56' E 032°01'0 0.0
2015-Jan-23 08:31N 46°56' E 032°01'0 0.0
2015-Jan-23 07:31N 46°56' E 032°01'0 0.0
2015-Jan-23 06:31N 46°56' E 032°01'0 0.0
2015-Jan-23 05:31N 46°56' E 032°01'0 0.0
2015-Jan-23 04:31N 46°56' E 032°01'0 0.0
2015-Jan-23 03:25N 46°56' E 032°01'0 0.0
2015-Jan-23 02:31N 46°56' E 032°01'0 0.0
2015-Jan-23 01:31N 46°56' E 032°01'0 0.0
2015-Jan-23 00:31N 46°56' E 032°01'0 0.0
2015-Jan-22 23:31N 46°56' E 032°01'0 0.0
2015-Jan-22 22:31N 46°56' E 032°01'0 0.0
2015-Jan-22 21:31N 46°56' E 032°01'0 0.0
2015-Jan-22 20:31N 46°56' E 032°01'0 0.0
2015-Jan-22 19:31N 46°56' E 032°01'0 0.0
2015-Jan-22 18:31N 46°56' E 032°01'0 0.0
2015-Jan-22 17:31N 46°56' E 032°01'0 0.0
2015-Jan-22 16:31N 46°56' E 032°01'0 0.0
2015-Jan-22 15:31N 46°56' E 032°01'0 0.0
2015-Jan-22 14:31N 46°56' E 032°01'0 0.0
2015-Jan-22 13:28N 46°56' E 032°01'0 0.1
2015-Jan-22 12:33N 46°56' E 032°01'1 0.7
2015-Jan-22 11:31N 46°57' E 031°60'0 0.0
2015-Jan-22 10:31N 46°57' E 031°60'0 0.0
2015-Jan-22 09:31N 46°57' E 031°60'0 0.0
2015-Jan-22 08:31N 46°57' E 031°60'0 0.0
2015-Jan-22 07:31N 46°57' E 031°60'0 0.0
2015-Jan-22 06:31N 46°57' E 031°60'0 0.1
2015-Jan-22 05:31N 46°57' E 032°00'0 0.0
2015-Jan-22 04:33N 46°57' E 032°00'8 7.6
2015-Jan-22 03:34N 46°50' E 031°55'9 9.4
2015-Jan-22 02:33N 46°40' E 031°56'10 9.8
2015-Jan-22 01:33N 46°36' E 031°43'  

Dump ship's entire track history